Terminal Aerodrome Forecast
Issued by NWS

Home | Current Version | Previous Version | Text Only | Print | Product List | Glossary On
Versions: 1 2 3 4 5 6 7 8 9 10 11 12 13 14
000
FTUS42 KMLB 282329
TAFFPR
TAF
KFPR 282329Z 2900/2924 11006KT P6SM VCSH SCT050 BKN100
     FM290200 VRB02KT P6SM SCT050 BKN250
     FM291400 12005KT P6SM VCSH SCT030 SCT100 BKN250
     FM291700 08010KT P6SM VCSH SCT035 BKN250
      TEMPO 2918/2922 TS BKN035CB BKN060=

USA.gov is the U.S. government's official web portal to all federal, state and local government web resources and services.